首页
METAR-TAF:

METAR-TAF

机场 :

阿尔本加, 意大利

纬度: 44-03N, 经度: 008-07E, 海拔: 45米

当前天气观测

该预报发布于5小时和31分钟前的17:50 UTC
风速6节,风向东转东北,在北转东北之间变化
温度 20°C
湿度 24%
气压 1025 hPa
能见度10公里或以上
1500米以下无云,无积雨云

METAR: LIMG 061750Z 06006KT 020V090 CAVOK 20/M01 Q1025

时间: 01:21 (23:21 UTC)


TAF: 丢失

超过4000个机场的气象观测和天气预报(METAR&TAF报告)。

可查询的气象台以黄色和红色小点在地图上表示。

将鼠标移到小点上方,可查看气象台名称。

然后点击查看天气观测和预报。

如需切换地图:点击带黑十字的绿色按钮放大地图;点击带横线的绿色按钮缩小地图;或者点击绿色箭头查看邻近地区的地图。


METAR-TAF: